George Allen — WDF9749 — position and weather

sailwx.info

Track history (hours):
 
Tides and Currents Weather Stations Pressure Air Temp Water Temp Dewpoint Dewpoint Depression Visibility Wind Speed Wind Dir Waves Ship Positions

George Allen

Owner: Blessey Enterprises, Inc., Harahan, LA. More information available from US FCC via Universal Licensing System and Coast Guard Vessel Documentation Center.

Last reported at 2016-Aug-27 15:33 UTC. Time now 2016-Aug-28 12:06 UTC.
Position N 29°33' W 094°54'.

Date/timePositionNaut miles runAvg speedWind from/ knotsBaromVisibWave heightAir tempDewpointWater temp
2016-Aug-27 15:33N 29°33' W 094°54'8 7.2
2016-Aug-27 14:30N 29°26' W 094°50'19 3.7
2016-Aug-27 09:19N 29°32' W 094°29'40 4.9
2016-Aug-27 01:09N 29°56' W 093°52'13 0.7
2016-Aug-26 04:29N 30°05' W 094°04'9 0.6
2016-Aug-25 11:31N 29°60' W 093°55'0 0.0
2016-Aug-25 10:32N 29°60' W 093°55'0 0.0
2016-Aug-25 09:31N 29°60' W 093°55'0 0.0
2016-Aug-25 07:17N 29°60' W 093°55'0 0.0
2016-Aug-25 04:26N 29°60' W 093°55'0 0.0
2016-Aug-25 03:33N 29°60' W 093°55'4 0.5
2016-Aug-24 20:32N 29°58' W 093°51'0 0.0
2016-Aug-24 13:25N 29°58' W 093°51'0 0.0
2016-Aug-24 11:28N 29°58' W 093°51'0 0.0
2016-Aug-24 09:30N 29°58' W 093°51'0 0.0
2016-Aug-24 08:17N 29°58' W 093°51'0 0.0
2016-Aug-24 07:11N 29°58' W 093°51'0 0.0
2016-Aug-24 06:12N 29°58' W 093°51'0 0.0
2016-Aug-24 03:20N 29°58' W 093°51'0 0.0
2016-Aug-23 21:11N 29°58' W 093°51'0 0.0
2016-Aug-23 14:15N 29°58' W 093°51'4 0.6
2016-Aug-23 08:14N 29°60' W 093°55'0 0.0
2016-Aug-23 07:33N 29°60' W 093°55'0 0.0
2016-Aug-23 06:33N 29°60' W 093°55'0 0.0
2016-Aug-23 05:33N 29°60' W 093°55'0 0.0
2016-Aug-23 04:33N 29°60' W 093°55'0 0.0
2016-Aug-23 03:33N 29°60' W 093°55'0 0.0
2016-Aug-23 02:33N 29°60' W 093°55'4 3.6
2016-Aug-23 01:32N 29°58' W 093°51'0 0.0
2016-Aug-23 00:28N 29°58' W 093°51'0 0.0
2016-Aug-22 23:34N 29°58' W 093°51'0 0.0
2016-Aug-22 22:33N 29°58' W 093°51'4 4.3
2016-Aug-22 21:33N 29°59' W 093°56'1 0.1
2016-Aug-22 03:31N 29°60' W 093°57'0 0.0
2016-Aug-20 11:33N 29°60' W 093°57'0 0.0
2016-Aug-20 10:27N 29°60' W 093°57'0 0.0
2016-Aug-20 09:30N 29°60' W 093°57'0 0.0
2016-Aug-20 08:33N 29°60' W 093°57'0 0.0
2016-Aug-20 07:30N 29°60' W 093°57'0 0.0
2016-Aug-20 06:33N 29°60' W 093°57'0 0.0
2016-Aug-20 02:14N 29°60' W 093°57'0 0.0
2016-Aug-20 01:16N 29°60' W 093°57'6 3.0
2016-Aug-19 23:23N 29°58' W 093°51'6 7.7
2016-Aug-19 22:33N 30°02' W 093°44'7 7.3
2016-Aug-19 21:33N 30°04' W 093°36'7 7.3
2016-Aug-19 20:33N 30°04' W 093°28'7 6.8
2016-Aug-19 19:33N 30°05' W 093°20'0 0.4
2016-Aug-19 18:33N 30°05' W 093°20'0 0.0
2016-Aug-19 17:33N 30°05' W 093°20'0 0.0
2016-Aug-19 16:33N 30°05' W 093°20'1 1.0
2016-Aug-19 15:33N 30°04' W 093°21'3 2.6
2016-Aug-19 14:33N 30°04' W 093°23'2 2.3
2016-Aug-19 13:34N 30°04' W 093°26'5 5.0
2016-Aug-19 12:33N 30°04' W 093°20'3 3.3
2016-Aug-19 11:33N 30°05' W 093°17'0 0.0
2016-Aug-19 10:33N 30°05' W 093°17'0 0.0
2016-Aug-19 09:33N 30°05' W 093°17'0 0.0
2016-Aug-19 08:33N 30°05' W 093°17'0 0.1
2016-Aug-19 07:33N 30°05' W 093°17'3 2.8
2016-Aug-19 06:33N 30°02' W 093°15'5 5.2
2016-Aug-19 05:33N 29°58' W 093°11'5 4.9
2016-Aug-19 04:33N 29°56' W 093°06'6 6.0
2016-Aug-19 03:33N 29°56' W 092°59'7 5.4
2016-Aug-19 02:15N 29°57' W 092°51'4 5.2
2016-Aug-19 01:33N 29°58' W 092°47'4 4.5
2016-Aug-19 00:33N 29°57' W 092°42'4 4.3
2016-Aug-18 23:31N 29°55' W 092°38'9 4.4
2016-Aug-18 21:28N 29°54' W 092°28'4 4.4
2016-Aug-18 20:34N 29°53' W 092°23'4 3.8
2016-Aug-18 19:33N 29°50' W 092°20'4 3.9
2016-Aug-18 18:33N 29°48' W 092°16'3 2.5
2016-Aug-18 17:33N 29°47' W 092°13'0 0.0
2016-Aug-18 16:33N 29°47' W 092°13'0 0.0
2016-Aug-18 15:33N 29°47' W 092°13'1 0.8
2016-Aug-18 14:33N 29°47' W 092°12'1 0.7
2016-Aug-18 13:33N 29°47' W 092°12'0 0.0
2016-Aug-18 12:33N 29°47' W 092°12'0 0.0
2016-Aug-18 11:33N 29°47' W 092°12'0 0.0
2016-Aug-18 10:33N 29°47' W 092°12'0 0.0
2016-Aug-18 09:33N 29°47' W 092°12'0 0.0
2016-Aug-18 08:33N 29°47' W 092°12'0 0.0
2016-Aug-18 07:34N 29°47' W 092°12'0 0.0
2016-Aug-18 06:33N 29°47' W 092°12'0 0.0
2016-Aug-18 05:34N 29°47' W 092°12'1 0.8
2016-Aug-18 04:33N 29°47' W 092°11'1 1.0
2016-Aug-18 03:33N 29°47' W 092°10'5 4.9
2016-Aug-18 02:33N 29°48' W 092°04'5 4.6
2016-Aug-18 01:33N 29°50' W 091°59'5 4.8
2016-Aug-18 00:32N 29°51' W 091°54'8 3.6
2016-Aug-17 22:21N 29°46' W 091°46'  
Track history (hours):
 
Tides and Currents Weather Stations Pressure Air Temp Water Temp Dewpoint Dewpoint Depression Visibility Wind Speed Wind Dir Waves Ship Positions

George Allen

Owner: Blessey Enterprises, Inc., Harahan, LA. More information available from US FCC via Universal Licensing System and Coast Guard Vessel Documentation Center.

Last reported at 2016-Aug-27 15:33 UTC. Time now 2016-Aug-28 12:06 UTC.
Position N 29°33' W 094°54'.

Date/timePositionNaut miles runAvg speedWind from/ knotsBaromVisibWave heightAir tempDewpointWater temp
2016-Aug-27 15:33N 29°33' W 094°54'8 7.2
2016-Aug-27 14:30N 29°26' W 094°50'19 3.7
2016-Aug-27 09:19N 29°32' W 094°29'40 4.9
2016-Aug-27 01:09N 29°56' W 093°52'13 0.7
2016-Aug-26 04:29N 30°05' W 094°04'9 0.6
2016-Aug-25 11:31N 29°60' W 093°55'0 0.0
2016-Aug-25 10:32N 29°60' W 093°55'0 0.0
2016-Aug-25 09:31N 29°60' W 093°55'0 0.0
2016-Aug-25 07:17N 29°60' W 093°55'0 0.0
2016-Aug-25 04:26N 29°60' W 093°55'0 0.0
2016-Aug-25 03:33N 29°60' W 093°55'4 0.5
2016-Aug-24 20:32N 29°58' W 093°51'0 0.0
2016-Aug-24 13:25N 29°58' W 093°51'0 0.0
2016-Aug-24 11:28N 29°58' W 093°51'0 0.0
2016-Aug-24 09:30N 29°58' W 093°51'0 0.0
2016-Aug-24 08:17N 29°58' W 093°51'0 0.0
2016-Aug-24 07:11N 29°58' W 093°51'0 0.0
2016-Aug-24 06:12N 29°58' W 093°51'0 0.0
2016-Aug-24 03:20N 29°58' W 093°51'0 0.0
2016-Aug-23 21:11N 29°58' W 093°51'0 0.0
2016-Aug-23 14:15N 29°58' W 093°51'4 0.6
2016-Aug-23 08:14N 29°60' W 093°55'0 0.0
2016-Aug-23 07:33N 29°60' W 093°55'0 0.0
2016-Aug-23 06:33N 29°60' W 093°55'0 0.0
2016-Aug-23 05:33N 29°60' W 093°55'0 0.0
2016-Aug-23 04:33N 29°60' W 093°55'0 0.0
2016-Aug-23 03:33N 29°60' W 093°55'0 0.0
2016-Aug-23 02:33N 29°60' W 093°55'4 3.6
2016-Aug-23 01:32N 29°58' W 093°51'0 0.0
2016-Aug-23 00:28N 29°58' W 093°51'0 0.0
2016-Aug-22 23:34N 29°58' W 093°51'0 0.0
2016-Aug-22 22:33N 29°58' W 093°51'4 4.3
2016-Aug-22 21:33N 29°59' W 093°56'1 0.1
2016-Aug-22 03:31N 29°60' W 093°57'0 0.0
2016-Aug-20 11:33N 29°60' W 093°57'0 0.0
2016-Aug-20 10:27N 29°60' W 093°57'0 0.0
2016-Aug-20 09:30N 29°60' W 093°57'0 0.0
2016-Aug-20 08:33N 29°60' W 093°57'0 0.0
2016-Aug-20 07:30N 29°60' W 093°57'0 0.0
2016-Aug-20 06:33N 29°60' W 093°57'0 0.0
2016-Aug-20 02:14N 29°60' W 093°57'0 0.0
2016-Aug-20 01:16N 29°60' W 093°57'6 3.0
2016-Aug-19 23:23N 29°58' W 093°51'6 7.7
2016-Aug-19 22:33N 30°02' W 093°44'7 7.3
2016-Aug-19 21:33N 30°04' W 093°36'7 7.3
2016-Aug-19 20:33N 30°04' W 093°28'7 6.8
2016-Aug-19 19:33N 30°05' W 093°20'0 0.4
2016-Aug-19 18:33N 30°05' W 093°20'0 0.0
2016-Aug-19 17:33N 30°05' W 093°20'0 0.0
2016-Aug-19 16:33N 30°05' W 093°20'1 1.0
2016-Aug-19 15:33N 30°04' W 093°21'3 2.6
2016-Aug-19 14:33N 30°04' W 093°23'2 2.3
2016-Aug-19 13:34N 30°04' W 093°26'5 5.0
2016-Aug-19 12:33N 30°04' W 093°20'3 3.3
2016-Aug-19 11:33N 30°05' W 093°17'0 0.0
2016-Aug-19 10:33N 30°05' W 093°17'0 0.0
2016-Aug-19 09:33N 30°05' W 093°17'0 0.0
2016-Aug-19 08:33N 30°05' W 093°17'0 0.1
2016-Aug-19 07:33N 30°05' W 093°17'3 2.8
2016-Aug-19 06:33N 30°02' W 093°15'5 5.2
2016-Aug-19 05:33N 29°58' W 093°11'5 4.9
2016-Aug-19 04:33N 29°56' W 093°06'6 6.0
2016-Aug-19 03:33N 29°56' W 092°59'7 5.4
2016-Aug-19 02:15N 29°57' W 092°51'4 5.2
2016-Aug-19 01:33N 29°58' W 092°47'4 4.5
2016-Aug-19 00:33N 29°57' W 092°42'4 4.3
2016-Aug-18 23:31N 29°55' W 092°38'9 4.4
2016-Aug-18 21:28N 29°54' W 092°28'4 4.4
2016-Aug-18 20:34N 29°53' W 092°23'4 3.8
2016-Aug-18 19:33N 29°50' W 092°20'4 3.9
2016-Aug-18 18:33N 29°48' W 092°16'3 2.5
2016-Aug-18 17:33N 29°47' W 092°13'0 0.0
2016-Aug-18 16:33N 29°47' W 092°13'0 0.0
2016-Aug-18 15:33N 29°47' W 092°13'1 0.8
2016-Aug-18 14:33N 29°47' W 092°12'1 0.7
2016-Aug-18 13:33N 29°47' W 092°12'0 0.0
2016-Aug-18 12:33N 29°47' W 092°12'0 0.0
2016-Aug-18 11:33N 29°47' W 092°12'0 0.0
2016-Aug-18 10:33N 29°47' W 092°12'0 0.0
2016-Aug-18 09:33N 29°47' W 092°12'0 0.0
2016-Aug-18 08:33N 29°47' W 092°12'0 0.0
2016-Aug-18 07:34N 29°47' W 092°12'0 0.0
2016-Aug-18 06:33N 29°47' W 092°12'0 0.0
2016-Aug-18 05:34N 29°47' W 092°12'1 0.8
2016-Aug-18 04:33N 29°47' W 092°11'1 1.0
2016-Aug-18 03:33N 29°47' W 092°10'5 4.9
2016-Aug-18 02:33N 29°48' W 092°04'5 4.6
2016-Aug-18 01:33N 29°50' W 091°59'5 4.8
2016-Aug-18 00:32N 29°51' W 091°54'8 3.6
2016-Aug-17 22:21N 29°46' W 091°46'  

Dump ship's entire track history